sensor_id;sensor_type;location;lat;lon;timestamp;pressure;altitude;pressure_sealevel;temperature;humidity
56518;BME280;42419;48.760;2.322;2022-08-01T00:01:31;101141.88;;;25.79;41.58
56518;BME280;42419;48.760;2.322;2022-08-01T00:03:56;101141.06;;;25.77;41.51
56518;BME280;42419;48.760;2.322;2022-08-01T00:06:21;101135.75;;;25.75;42.13
56518;BME280;42419;48.760;2.322;2022-08-01T00:08:47;101138.44;;;25.75;41.63
56518;BME280;42419;48.760;2.322;2022-08-01T00:11:12;101143.84;;;25.75;41.64
56518;BME280;42419;48.760;2.322;2022-08-01T00:13:37;101139.50;;;25.73;41.63
56518;BME280;42419;48.760;2.322;2022-08-01T00:16:03;101132.28;;;25.73;41.63
56518;BME280;42419;48.760;2.322;2022-08-01T00:18:28;101135.06;;;25.72;41.86
56518;BME280;42419;48.760;2.322;2022-08-01T00:20:54;101138.72;;;25.71;41.58
56518;BME280;42419;48.760;2.322;2022-08-01T00:23:19;101128.94;;;25.68;42.17
56518;BME280;42419;48.760;2.322;2022-08-01T00:25:44;101107.28;;;25.54;41.80
56518;BME280;42419;48.760;2.322;2022-08-01T00:28:09;101133.47;;;25.68;42.03
56518;BME280;42419;48.760;2.322;2022-08-01T00:30:35;101125.44;;;25.66;42.19
56518;BME280;42419;48.760;2.322;2022-08-01T00:33:02;101131.72;;;25.67;42.19
56518;BME280;42419;48.760;2.322;2022-08-01T00:35:27;101118.50;;;25.62;42.15
56518;BME280;42419;48.760;2.322;2022-08-01T00:37:53;101121.13;;;25.64;42.28
56518;BME280;42419;48.760;2.322;2022-08-01T00:40:18;101114.84;;;25.63;41.71
56518;BME280;42419;48.760;2.322;2022-08-01T00:42:43;101119.38;;;25.63;41.75
56518;BME280;42419;48.760;2.322;2022-08-01T00:45:10;101106.31;;;25.55;41.88
56518;BME280;42419;48.760;2.322;2022-08-01T00:47:35;101113.22;;;25.61;42.25
56518;BME280;42419;48.760;2.322;2022-08-01T00:50:03;101113.22;;;25.61;42.05
56518;BME280;42419;48.760;2.322;2022-08-01T00:52:29;101110.59;;;25.59;42.25
56518;BME280;42419;48.760;2.322;2022-08-01T00:54:54;101117.81;;;25.59;42.04
56518;BME280;42419;48.760;2.322;2022-08-01T00:57:19;101116.06;;;25.58;42.03
56518;BME280;42419;48.760;2.322;2022-08-01T00:59:45;101108.94;;;25.57;42.08
56518;BME280;42419;48.760;2.322;2022-08-01T01:02:10;101111.72;;;25.55;42.44
56518;BME280;42419;48.760;2.322;2022-08-01T01:04:35;101106.31;;;25.55;42.28
56518;BME280;42419;48.760;2.322;2022-08-01T01:07:21;101109.03;;;25.55;42.42
56518;BME280;42419;48.760;2.322;2022-08-01T01:12:51;101108.41;;;25.50;42.67
56518;BME280;42419;48.760;2.322;2022-08-01T01:15:28;101103.09;;;25.48;42.24
56518;BME280;42419;48.760;2.322;2022-08-01T01:26:28;101105.09;;;25.45;42.33
56518;BME280;42419;48.760;2.322;2022-08-01T01:31:51;101106.16;;;25.42;42.27
56518;BME280;42419;48.760;2.322;2022-08-01T01:34:19;101117.81;;;25.43;42.59
56518;BME280;42419;48.760;2.322;2022-08-01T01:36:47;101105.28;;;25.42;42.36
56518;BME280;42419;48.760;2.322;2022-08-01T01:39:13;101105.28;;;25.42;42.53
56518;BME280;42419;48.760;2.322;2022-08-01T01:41:40;101104.41;;;25.41;42.78
56518;BME280;42419;48.760;2.322;2022-08-01T01:44:08;101104.41;;;25.41;42.64
56518;BME280;42419;48.760;2.322;2022-08-01T01:46:35;101110.75;;;25.40;42.77
56518;BME280;42419;48.760;2.322;2022-08-01T01:49:02;101099.97;;;25.40;42.46
56518;BME280;42419;48.760;2.322;2022-08-01T01:51:28;101109.00;;;25.39;42.31
56518;BME280;42419;48.760;2.322;2022-08-01T01:53:55;101093.88;;;25.37;42.52
56518;BME280;42419;48.760;2.322;2022-08-01T01:56:22;101106.31;;;25.39;42.85
56518;BME280;42419;48.760;2.322;2022-08-01T01:58:54;101090.25;;;25.38;42.53
56518;BME280;42419;48.760;2.322;2022-08-01T02:01:23;101101.97;;;25.37;42.85
56518;BME280;42419;48.760;2.322;2022-08-01T02:03:51;101076.66;;;25.24;42.85
56518;BME280;42419;48.760;2.322;2022-08-01T02:06:18;101102.91;;;25.36;42.96
56518;BME280;42419;48.760;2.322;2022-08-01T02:08:45;101103.88;;;25.35;42.51
56518;BME280;42419;48.760;2.322;2022-08-01T02:11:13;101105.72;;;25.34;42.60
56518;BME280;42419;48.760;2.322;2022-08-01T02:13:55;101098.66;;;25.32;43.09
56518;BME280;42419;48.760;2.322;2022-08-01T02:16:26;101096.41;;;25.24;42.80
56518;BME280;42419;48.760;2.322;2022-08-01T02:18:52;101100.59;;;25.30;42.43
56518;BME280;42419;48.760;2.322;2022-08-01T02:21:23;101098.84;;;25.29;42.56
56518;BME280;42419;48.760;2.322;2022-08-01T02:23:51;101102.47;;;25.28;42.82
56518;BME280;42419;48.760;2.322;2022-08-01T02:26:17;101108.94;;;25.25;42.97
56518;BME280;42419;48.760;2.322;2022-08-01T02:28:50;101108.13;;;25.23;43.10
56518;BME280;42419;48.760;2.322;2022-08-01T02:31:21;101070.63;;;25.03;42.75
56518;BME280;42419;48.760;2.322;2022-08-01T02:33:54;101107.63;;;25.17;43.05
56518;BME280;42419;48.760;2.322;2022-08-01T02:36:23;101103.31;;;25.13;42.56
56518;BME280;42419;48.760;2.322;2022-08-01T02:38:51;101091.19;;;25.04;42.41
56518;BME280;42419;48.760;2.322;2022-08-01T02:41:20;101107.06;;;25.10;43.02
56518;BME280;42419;48.760;2.322;2022-08-01T02:43:50;101107.97;;;25.09;43.03
56518;BME280;42419;48.760;2.322;2022-08-01T02:46:21;101087.19;;;24.95;43.17
56518;BME280;42419;48.760;2.322;2022-08-01T02:48:50;101094.88;;;25.03;42.77
56518;BME280;42419;48.760;2.322;2022-08-01T02:51:19;101107.34;;;25.04;42.89
56518;BME280;42419;48.760;2.322;2022-08-01T02:53:47;101102.16;;;25.01;43.14
56518;BME280;42419;48.760;2.322;2022-08-01T02:56:13;101099.44;;;25.01;43.20
56518;BME280;42419;48.760;2.322;2022-08-01T02:58:41;101098.66;;;24.99;42.72
56518;BME280;42419;48.760;2.322;2022-08-01T03:01:08;101081.34;;;24.87;43.03
56518;BME280;42419;48.760;2.322;2022-08-01T03:03:34;101095.19;;;24.97;43.19
56518;BME280;42419;48.760;2.322;2022-08-01T03:06:02;101097.88;;;24.97;42.74
56518;BME280;42419;48.760;2.322;2022-08-01T03:08:29;101097.00;;;24.96;42.78
56518;BME280;42419;48.760;2.322;2022-08-01T03:10:56;101098.94;;;24.94;42.86
56518;BME280;42419;48.760;2.322;2022-08-01T03:13:25;101103.44;;;24.94;43.23
56518;BME280;42419;48.760;2.322;2022-08-01T03:15:52;101102.63;;;24.92;42.91
56518;BME280;42419;48.760;2.322;2022-08-01T03:18:20;101080.81;;;24.81;43.28
56518;BME280;42419;48.760;2.322;2022-08-01T03:20:49;101083.66;;;24.78;43.04
56518;BME280;42419;48.760;2.322;2022-08-01T03:23:15;101099.25;;;24.88;42.81
56518;BME280;42419;48.760;2.322;2022-08-01T03:25:43;101097.50;;;24.87;42.89
56518;BME280;42419;48.760;2.322;2022-08-01T03:28:12;101085.41;;;24.79;43.11
56518;BME280;42419;48.760;2.322;2022-08-01T03:30:39;101094.88;;;24.86;43.21
56518;BME280;42419;48.760;2.322;2022-08-01T03:33:05;101102.97;;;24.86;43.55
56518;BME280;42419;48.760;2.322;2022-08-01T03:35:39;101103.31;;;24.80;43.38
56518;BME280;42419;48.760;2.322;2022-08-01T03:38:08;101109.31;;;24.85;43.49
56518;BME280;42419;48.760;2.322;2022-08-01T03:40:41;101103.94;;;24.85;43.58
56518;BME280;42419;48.760;2.322;2022-08-01T03:43:16;101103.94;;;24.85;43.58
56518;BME280;42419;48.760;2.322;2022-08-01T03:45:46;101109.31;;;24.85;43.63
56518;BME280;42419;48.760;2.322;2022-08-01T03:48:16;101098.00;;;24.78;43.85
56518;BME280;42419;48.760;2.322;2022-08-01T03:50:45;101103.84;;;24.86;43.20
56518;BME280;42419;48.760;2.322;2022-08-01T03:53:13;101105.66;;;24.86;44.00
56518;BME280;42419;48.760;2.322;2022-08-01T03:55:41;101109.22;;;24.86;43.52
56518;BME280;42419;48.760;2.322;2022-08-01T03:58:07;101096.25;;;24.77;43.58
56518;BME280;42419;48.760;2.322;2022-08-01T04:00:36;101107.41;;;24.87;43.84
56518;BME280;42419;48.760;2.322;2022-08-01T04:03:04;101108.22;;;24.89;43.38
56518;BME280;42419;48.760;2.322;2022-08-01T04:05:29;101110.91;;;24.89;43.37
56518;BME280;42419;48.760;2.322;2022-08-01T04:07:56;101099.31;;;24.87;43.34
56518;BME280;42419;48.760;2.322;2022-08-01T04:10:23;101102.00;;;24.87;43.67
56518;BME280;42419;48.760;2.322;2022-08-01T04:12:49;101104.63;;;24.88;43.44
56518;BME280;42419;48.760;2.322;2022-08-01T04:15:14;101104.63;;;24.88;43.26
56518;BME280;42419;48.760;2.322;2022-08-01T04:17:40;101070.63;;;24.70;43.81
56518;BME280;42419;48.760;2.322;2022-08-01T04:20:05;101085.34;;;24.80;43.71
56518;BME280;42419;48.760;2.322;2022-08-01T04:22:31;101094.97;;;24.84;43.55
56518;BME280;42419;48.760;2.322;2022-08-01T04:24:58;101092.53;;;24.80;43.79
56518;BME280;42419;48.760;2.322;2022-08-01T04:27:37;101098.56;;;24.85;44.35
56518;BME280;42419;48.760;2.322;2022-08-01T04:30:04;101091.41;;;24.84;43.77
56518;BME280;42419;48.760;2.322;2022-08-01T04:32:33;101074.81;;;24.76;44.11
56518;BME280;42419;48.760;2.322;2022-08-01T04:35:03;101089.59;;;24.84;43.58
56518;BME280;42419;48.760;2.322;2022-08-01T04:37:30;101083.50;;;24.81;43.46
56518;BME280;42419;48.760;2.322;2022-08-01T04:39:56;101093.25;;;24.83;44.02
56518;BME280;42419;48.760;2.322;2022-08-01T04:42:23;101090.53;;;24.83;43.79
56518;BME280;42419;48.760;2.322;2022-08-01T04:44:49;101091.41;;;24.84;43.93
56518;BME280;42419;48.760;2.322;2022-08-01T04:47:14;101093.25;;;24.83;43.63
56518;BME280;42419;48.760;2.322;2022-08-01T04:49:40;101099.50;;;24.84;44.16
56518;BME280;42419;48.760;2.322;2022-08-01T04:52:05;101095.94;;;24.83;43.45
56518;BME280;42419;48.760;2.322;2022-08-01T04:54:33;101100.38;;;24.84;44.03
56518;BME280;42419;48.760;2.322;2022-08-01T04:57:02;101070.06;;;24.64;44.17
56518;BME280;42419;48.760;2.322;2022-08-01T04:59:37;101091.84;;;24.76;44.34
56518;BME280;42419;48.760;2.322;2022-08-01T05:02:13;101104.09;;;24.82;44.03
56518;BME280;42419;48.760;2.322;2022-08-01T05:04:41;101089.41;;;24.72;43.93
56518;BME280;42419;48.760;2.322;2022-08-01T05:07:07;101104.94;;;24.82;43.87
56518;BME280;42419;48.760;2.322;2022-08-01T05:09:34;101111.22;;;24.83;44.19
56518;BME280;42419;48.760;2.322;2022-08-01T05:12:02;101085.13;;;24.68;44.30
56518;BME280;42419;48.760;2.322;2022-08-01T05:14:29;101120.16;;;24.83;43.62
56518;BME280;42419;48.760;2.322;2022-08-01T05:16:57;101119.28;;;24.83;44.03
56518;BME280;42419;48.760;2.322;2022-08-01T05:19:22;101117.66;;;24.80;43.64
56518;BME280;42419;48.760;2.322;2022-08-01T05:21:48;101074.03;;;24.56;44.22
56518;BME280;42419;48.760;2.322;2022-08-01T05:24:13;101119.28;;;24.83;44.35
56518;BME280;42419;48.760;2.322;2022-08-01T05:26:39;101102.50;;;24.78;44.08
56518;BME280;42419;48.760;2.322;2022-08-01T05:29:04;101117.47;;;24.83;44.00
56518;BME280;42419;48.760;2.322;2022-08-01T05:31:30;101093.19;;;24.68;44.33
56518;BME280;42419;48.760;2.322;2022-08-01T05:33:57;101119.22;;;24.84;44.25
56518;BME280;42419;48.760;2.322;2022-08-01T05:36:23;101112.91;;;24.85;44.05
56518;BME280;42419;48.760;2.322;2022-08-01T05:38:48;101108.34;;;24.86;44.58
56518;BME280;42419;48.760;2.322;2022-08-01T05:41:13;101116.44;;;24.86;44.11
56518;BME280;42419;48.760;2.322;2022-08-01T05:43:39;101114.72;;;24.85;44.57
56518;BME280;42419;48.760;2.322;2022-08-01T05:46:04;101094.34;;;24.79;44.43
56518;BME280;42419;48.760;2.322;2022-08-01T05:48:29;101107.25;;;24.90;44.41
56518;BME280;42419;48.760;2.322;2022-08-01T05:50:55;101116.13;;;24.92;44.46
56518;BME280;42419;48.760;2.322;2022-08-01T05:53:20;101115.25;;;24.91;44.59
56518;BME280;42419;48.760;2.322;2022-08-01T05:55:46;101129.41;;;24.95;44.14
56518;BME280;42419;48.760;2.322;2022-08-01T05:58:11;101130.13;;;24.98;44.32
56518;BME280;42419;48.760;2.322;2022-08-01T06:00:37;101129.16;;;24.99;44.43
56518;BME280;42419;48.760;2.322;2022-08-01T06:03:02;101134.47;;;25.01;44.58
56518;BME280;42419;48.760;2.322;2022-08-01T06:05:27;101133.53;;;25.02;44.46
56518;BME280;42419;48.760;2.322;2022-08-01T06:07:53;101137.16;;;25.01;44.33
56518;BME280;42419;48.760;2.322;2022-08-01T06:10:18;101136.91;;;25.05;44.69
56518;BME280;42419;48.760;2.322;2022-08-01T06:12:44;101133.34;;;25.05;44.33
56518;BME280;42419;48.760;2.322;2022-08-01T06:15:10;101124.81;;;24.97;44.57
56518;BME280;42419;48.760;2.322;2022-08-01T06:17:35;101135.28;;;25.03;44.42
56518;BME280;42419;48.760;2.322;2022-08-01T06:20:00;101123.06;;;24.96;44.42
56518;BME280;42419;48.760;2.322;2022-08-01T06:22:26;101121.31;;;24.95;44.11
56518;BME280;42419;48.760;2.322;2022-08-01T06:24:51;101133.44;;;25.03;44.69
56518;BME280;42419;48.760;2.322;2022-08-01T06:27:17;101134.22;;;25.05;44.68
56518;BME280;42419;48.760;2.322;2022-08-01T06:29:42;101128.84;;;25.05;44.38
56518;BME280;42419;48.760;2.322;2022-08-01T06:32:08;101137.88;;;25.04;44.23
56518;BME280;42419;48.760;2.322;2022-08-01T06:34:34;101137.72;;;25.08;44.41
56518;BME280;42419;48.760;2.322;2022-08-01T06:37:00;101143.13;;;25.08;44.35
56518;BME280;42419;48.760;2.322;2022-08-01T06:39:25;101138.56;;;25.08;44.30
56518;BME280;42419;48.760;2.322;2022-08-01T06:41:50;101133.09;;;25.10;44.44
56518;BME280;42419;48.760;2.322;2022-08-01T06:44:16;101134.00;;;25.10;44.19
56518;BME280;42419;48.760;2.322;2022-08-01T06:46:41;101134.88;;;25.11;44.71
56518;BME280;42419;48.760;2.322;2022-08-01T06:49:07;101133.94;;;25.12;44.59
56518;BME280;42419;48.760;2.322;2022-08-01T06:51:32;101131.25;;;25.12;44.36
56518;BME280;42419;48.760;2.322;2022-08-01T06:53:57;101140.91;;;25.16;44.41
56518;BME280;42419;48.760;2.322;2022-08-01T06:56:23;101120.53;;;25.10;44.41
56518;BME280;42419;48.760;2.322;2022-08-01T06:58:51;101072.63;;;24.82;44.53
56518;BME280;42419;48.760;2.322;2022-08-01T07:01:17;101114.31;;;25.08;44.34
56518;BME280;42419;48.760;2.322;2022-08-01T07:03:42;101126.72;;;25.12;44.54
56518;BME280;42419;48.760;2.322;2022-08-01T07:06:08;101139.78;;;25.20;44.57
56518;BME280;42419;48.760;2.322;2022-08-01T07:08:34;101131.94;;;25.15;44.36
56518;BME280;42419;48.760;2.322;2022-08-01T07:10:59;101127.50;;;25.14;44.58
56518;BME280;42419;48.760;2.322;2022-08-01T07:13:26;101130.00;;;25.17;44.47
56518;BME280;42419;48.760;2.322;2022-08-01T07:15:52;101138.72;;;25.22;44.02
56518;BME280;42419;48.760;2.322;2022-08-01T07:18:18;101149.34;;;25.25;44.20
56518;BME280;42419;48.760;2.322;2022-08-01T07:20:43;101146.66;;;25.25;44.09
56518;BME280;42419;48.760;2.322;2022-08-01T07:23:11;101144.75;;;25.27;44.14
56518;BME280;42419;48.760;2.322;2022-08-01T07:25:36;101135.88;;;25.25;44.42
56518;BME280;42419;48.760;2.322;2022-08-01T07:28:02;101136.56;;;25.29;43.96
56518;BME280;42419;48.760;2.322;2022-08-01T07:30:27;101118.28;;;25.18;44.46
56518;BME280;42419;48.760;2.322;2022-08-01T07:32:52;101142.66;;;25.32;44.41
56518;BME280;42419;48.760;2.322;2022-08-01T07:35:18;101142.66;;;25.32;44.03
56518;BME280;42419;48.760;2.322;2022-08-01T07:37:43;101137.34;;;25.31;43.95
56518;BME280;42419;48.760;2.322;2022-08-01T07:40:09;101140.16;;;25.29;44.18
56518;BME280;42419;48.760;2.322;2022-08-01T07:42:34;101148.06;;;25.32;43.91
56518;BME280;42419;48.760;2.322;2022-08-01T07:45:00;101153.13;;;25.38;44.09
56518;BME280;42419;48.760;2.322;2022-08-01T07:47:26;101154.84;;;25.39;44.20
56518;BME280;42419;48.760;2.322;2022-08-01T07:49:58;101152.94;;;25.41;43.81
56518;BME280;42419;48.760;2.322;2022-08-01T07:52:23;101163.03;;;25.38;43.89
56518;BME280;42419;48.760;2.322;2022-08-01T07:54:49;101166.34;;;25.43;44.05
56518;BME280;42419;48.760;2.322;2022-08-01T07:57:14;101173.44;;;25.44;43.91
56518;BME280;42419;48.760;2.322;2022-08-01T07:59:39;101164.41;;;25.45;43.78
56518;BME280;42419;48.760;2.322;2022-08-01T08:02:05;101162.78;;;25.42;44.13
56518;BME280;42419;48.760;2.322;2022-08-01T08:04:30;101171.47;;;25.47;44.15
56518;BME280;42419;48.760;2.322;2022-08-01T08:06:55;101166.09;;;25.47;43.81
56518;BME280;42419;48.760;2.322;2022-08-01T08:09:21;101156.59;;;25.40;43.79
56518;BME280;42419;48.760;2.322;2022-08-01T08:11:46;101161.66;;;25.46;43.65
56518;BME280;42419;48.760;2.322;2022-08-01T08:14:16;101165.91;;;25.51;44.22
56518;BME280;42419;48.760;2.322;2022-08-01T08:16:42;101167.72;;;25.50;43.61
56518;BME280;42419;48.760;2.322;2022-08-01T08:19:08;101171.22;;;25.52;44.11
56518;BME280;42419;48.760;2.322;2022-08-01T08:21:33;101168.44;;;25.54;43.88
56518;BME280;42419;48.760;2.322;2022-08-01T08:23:59;101141.28;;;25.41;43.79
56518;BME280;42419;48.760;2.322;2022-08-01T08:26:43;101135.97;;;25.39;43.52
56518;BME280;42419;48.760;2.322;2022-08-01T08:29:08;101163.66;;;25.59;43.99
56518;BME280;42419;48.760;2.322;2022-08-01T08:31:33;101161.81;;;25.59;43.72
56518;BME280;42419;48.760;2.322;2022-08-01T08:33:59;101178.00;;;25.59;43.57
56518;BME280;42419;48.760;2.322;2022-08-01T08:36:24;101168.09;;;25.60;43.41
56518;BME280;42419;48.760;2.322;2022-08-01T08:38:49;101173.50;;;25.60;43.84
56518;BME280;42419;48.760;2.322;2022-08-01T08:41:15;101166.41;;;25.57;43.51
56518;BME280;42419;48.760;2.322;2022-08-01T08:43:40;101157.13;;;25.63;43.71
56518;BME280;42419;48.760;2.322;2022-08-01T08:46:07;101152.59;;;25.63;43.40
56518;BME280;42419;48.760;2.322;2022-08-01T08:48:34;101148.00;;;25.65;43.60
56518;BME280;42419;48.760;2.322;2022-08-01T08:51:01;101084.56;;;25.27;43.81
56518;BME280;42419;48.760;2.322;2022-08-01T08:53:27;101125.13;;;25.57;43.28
56518;BME280;42419;48.760;2.322;2022-08-01T08:55:55;101134.53;;;25.65;43.24
56518;BME280;42419;48.760;2.322;2022-08-01T08:58:25;101143.84;;;25.75;43.39
56518;BME280;42419;48.760;2.322;2022-08-01T09:00:51;101112.22;;;25.62;43.69
56518;BME280;42419;48.760;2.322;2022-08-01T09:03:17;101135.41;;;25.81;43.35
56518;BME280;42419;48.760;2.322;2022-08-01T09:05:46;101122.38;;;25.74;43.69
56518;BME280;42419;48.760;2.322;2022-08-01T09:08:12;101144.19;;;25.85;43.28
56518;BME280;42419;48.760;2.322;2022-08-01T09:10:37;101139.75;;;25.84;43.69
56518;BME280;42419;48.760;2.322;2022-08-01T09:15:44;101119.31;;;25.80;42.76
56518;BME280;42419;48.760;2.322;2022-08-01T09:18:38;101143.59;;;25.96;42.92
56518;BME280;42419;48.760;2.322;2022-08-01T09:23:47;101151.59;;;25.97;43.00
56518;BME280;42419;48.760;2.322;2022-08-01T09:26:16;101117.84;;;25.74;43.06
56518;BME280;42419;48.760;2.322;2022-08-01T09:28:42;101140.47;;;25.87;43.24
56518;BME280;42419;48.760;2.322;2022-08-01T09:31:13;101148.28;;;25.92;42.71
56518;BME280;42419;48.760;2.322;2022-08-01T09:33:56;101155.06;;;25.99;42.91
56518;BME280;42419;48.760;2.322;2022-08-01T09:36:26;101155.06;;;25.99;42.69
56518;BME280;42419;48.760;2.322;2022-08-01T09:38:54;101157.75;;;25.99;43.12
56518;BME280;42419;48.760;2.322;2022-08-01T09:41:30;101153.25;;;26.00;42.99
56518;BME280;42419;48.760;2.322;2022-08-01T09:43:56;101139.75;;;25.84;42.71
56518;BME280;42419;48.760;2.322;2022-08-01T09:46:22;101167.78;;;25.97;42.71
56518;BME280;42419;48.760;2.322;2022-08-01T09:49:14;101169.63;;;25.97;42.35
56518;BME280;42419;48.760;2.322;2022-08-01T09:51:51;101166.13;;;25.95;42.54
56518;BME280;42419;48.760;2.322;2022-08-01T09:54:28;101165.44;;;25.91;42.30
56518;BME280;42419;48.760;2.322;2022-08-01T09:56:54;101171.78;;;25.90;42.27
56518;BME280;42419;48.760;2.322;2022-08-01T09:59:19;101159.88;;;25.78;42.51
56518;BME280;42419;48.760;2.322;2022-08-01T10:01:49;101138.44;;;25.75;42.33
56518;BME280;42419;48.760;2.322;2022-08-01T10:04:17;101158.22;;;25.91;42.25
56518;BME280;42419;48.760;2.322;2022-08-01T10:06:45;101159.09;;;25.92;42.28
56518;BME280;42419;48.760;2.322;2022-08-01T10:09:12;101143.59;;;25.80;42.18
56518;BME280;42419;48.760;2.322;2022-08-01T10:11:41;101167.94;;;25.94;42.46
56518;BME280;42419;48.760;2.322;2022-08-01T10:14:07;101175.97;;;25.96;42.57
56518;BME280;42419;48.760;2.322;2022-08-01T10:16:35;101176.72;;;25.98;42.37
56518;BME280;42419;48.760;2.322;2022-08-01T10:19:07;101170.19;;;26.02;42.71
56518;BME280;42419;48.760;2.322;2022-08-01T10:21:33;101169.16;;;26.04;43.03
56518;BME280;42419;48.760;2.322;2022-08-01T10:24:02;101162.72;;;26.07;42.92
56518;BME280;42419;48.760;2.322;2022-08-01T10:26:32;101162.63;;;26.08;42.98
56518;BME280;42419;48.760;2.322;2022-08-01T10:28:58;101168.03;;;26.08;42.49
56518;BME280;42419;48.760;2.322;2022-08-01T10:31:24;101140.97;;;25.94;42.36
56518;BME280;42419;48.760;2.322;2022-08-01T10:33:50;101157.22;;;26.08;42.30
56518;BME280;42419;48.760;2.322;2022-08-01T10:36:19;101158.03;;;26.10;42.39
56518;BME280;42419;48.760;2.322;2022-08-01T10:38:45;101158.97;;;26.09;42.27
56518;BME280;42419;48.760;2.322;2022-08-01T10:41:12;101117.75;;;25.91;42.41
56518;BME280;42419;48.760;2.322;2022-08-01T10:43:38;101147.22;;;26.10;42.40
56518;BME280;42419;48.760;2.322;2022-08-01T10:46:04;101067.19;;;25.64;43.03
56518;BME280;42419;48.760;2.322;2022-08-01T10:51:01;101159.59;;;26.14;42.98
56518;BME280;42419;48.760;2.322;2022-08-01T10:53:28;101154.06;;;26.16;42.84
56518;BME280;42419;48.760;2.322;2022-08-01T10:55:57;101156.69;;;26.17;43.00
56518;BME280;42419;48.760;2.322;2022-08-01T10:58:34;101152.16;;;26.18;42.82
56518;BME280;42419;48.760;2.322;2022-08-01T11:01:23;101156.63;;;26.19;42.64
56518;BME280;42419;48.760;2.322;2022-08-01T11:06:39;101142.50;;;26.14;42.46
56518;BME280;42419;48.760;2.322;2022-08-01T11:09:18;101150.16;;;26.21;42.88
56518;BME280;42419;48.760;2.322;2022-08-01T11:12:05;101152.84;;;26.21;42.50
56518;BME280;42419;48.760;2.322;2022-08-01T11:14:34;101081.44;;;25.81;42.32
56518;BME280;42419;48.760;2.322;2022-08-01T11:20:12;101145.63;;;26.22;42.77
56518;BME280;42419;48.760;2.322;2022-08-01T11:30:46;101121.09;;;26.11;42.78
56518;BME280;42419;48.760;2.322;2022-08-01T11:33:13;101137.81;;;26.17;42.54
56518;BME280;42419;48.760;2.322;2022-08-01T11:36:16;101133.34;;;26.16;42.59
56518;BME280;42419;48.760;2.322;2022-08-01T11:38:44;101153.47;;;26.26;42.60
56518;BME280;42419;48.760;2.322;2022-08-01T11:43:35;101151.53;;;26.28;42.84
56518;BME280;42419;48.760;2.322;2022-08-01T11:46:00;101150.59;;;26.29;42.94
56518;BME280;42419;48.760;2.322;2022-08-01T11:48:27;101141.53;;;26.30;42.76
56518;BME280;42419;48.760;2.322;2022-08-01T11:50:57;101138.75;;;26.32;42.89
56518;BME280;42419;48.760;2.322;2022-08-01T11:53:22;101138.66;;;26.33;42.65
56518;BME280;42419;48.760;2.322;2022-08-01T11:55:50;101104.34;;;26.20;42.75
56518;BME280;42419;48.760;2.322;2022-08-01T11:58:21;101134.91;;;26.36;43.07
56518;BME280;42419;48.760;2.322;2022-08-01T12:00:57;101128.44;;;26.39;42.92
56518;BME280;42419;48.760;2.322;2022-08-01T12:03:31;101116.09;;;26.34;42.86
56518;BME280;42419;48.760;2.322;2022-08-01T12:05:58;101128.28;;;26.42;42.66
56518;BME280;42419;48.760;2.322;2022-08-01T12:08:28;101124.59;;;26.43;43.01
56518;BME280;42419;48.760;2.322;2022-08-01T12:10:53;101120.06;;;26.43;42.88
56518;BME280;42419;48.760;2.322;2022-08-01T12:13:19;101114.78;;;26.42;42.60
56518;BME280;42419;48.760;2.322;2022-08-01T12:15:46;101123.66;;;26.44;42.65
56518;BME280;42419;48.760;2.322;2022-08-01T12:18:11;101125.41;;;26.45;42.59
56518;BME280;42419;48.760;2.322;2022-08-01T12:20:42;101118.25;;;26.44;42.72
56518;BME280;42419;48.760;2.322;2022-08-01T12:23:14;101117.28;;;26.45;42.66
56518;BME280;42419;48.760;2.322;2022-08-01T12:25:40;101089.19;;;26.33;42.90
56518;BME280;42419;48.760;2.322;2022-08-01T12:28:10;101105.63;;;26.44;43.09
56518;BME280;42419;48.760;2.322;2022-08-01T12:30:36;101112.66;;;26.47;42.59
56518;BME280;42419;48.760;2.322;2022-08-01T12:33:07;101095.19;;;26.38;42.60
56518;BME280;42419;48.760;2.322;2022-08-01T12:35:35;101114.41;;;26.48;42.46
56518;BME280;42419;48.760;2.322;2022-08-01T12:38:05;101110.81;;;26.47;42.55
56518;BME280;42419;48.760;2.322;2022-08-01T12:40:41;101083.78;;;26.33;42.65
56518;BME280;42419;48.760;2.322;2022-08-01T12:43:08;101107.25;;;26.47;42.76
56518;BME280;42419;48.760;2.322;2022-08-01T12:45:38;101105.53;;;26.46;42.74
56518;BME280;42419;48.760;2.322;2022-08-01T12:48:14;101095.69;;;26.45;42.82
56518;BME280;42419;48.760;2.322;2022-08-01T12:50:45;101106.56;;;26.43;42.86
56518;BME280;42419;48.760;2.322;2022-08-01T12:53:12;101085.81;;;26.29;42.50
56518;BME280;42419;48.760;2.322;2022-08-01T12:55:45;101113.72;;;26.44;42.50
56518;BME280;42419;48.760;2.322;2022-08-01T12:58:13;101113.91;;;26.41;42.57
56518;BME280;42419;48.760;2.322;2022-08-01T13:00:40;101121.91;;;26.43;42.41
56518;BME280;42419;48.760;2.322;2022-08-01T13:03:09;101119.31;;;26.41;42.65
56518;BME280;42419;48.760;2.322;2022-08-01T13:05:54;101121.03;;;26.42;42.75
56518;BME280;42419;48.760;2.322;2022-08-01T13:08:22;101117.56;;;26.40;42.69
56518;BME280;42419;48.760;2.322;2022-08-01T13:10:49;101113.91;;;26.41;42.86
56518;BME280;42419;48.760;2.322;2022-08-01T13:13:15;101115.63;;;26.42;42.53
56518;BME280;42419;48.760;2.322;2022-08-01T13:15:42;101089.41;;;26.28;42.58
56518;BME280;42419;48.760;2.322;2022-08-01T13:18:28;101119.19;;;26.43;42.61
56518;BME280;42419;48.760;2.322;2022-08-01T13:21:08;101114.69;;;26.43;42.66
56518;BME280;42419;48.760;2.322;2022-08-01T13:23:34;101122.69;;;26.45;42.78
56518;BME280;42419;48.760;2.322;2022-08-01T13:25:59;101097.41;;;26.31;42.82
56518;BME280;42419;48.760;2.322;2022-08-01T13:28:27;101126.16;;;26.47;42.47
56518;BME280;42419;48.760;2.322;2022-08-01T13:31:02;101121.63;;;26.47;42.57
56518;BME280;42419;48.760;2.322;2022-08-01T13:33:43;101119.78;;;26.48;42.33